createdAt,value
2022-12-29T00:01:07.236Z,8.40
2022-12-29T00:03:34.968Z,8.50
2022-12-29T00:06:04.316Z,8.50
2022-12-29T00:08:41.101Z,8.60
2022-12-29T00:11:14.936Z,8.60
2022-12-29T00:14:03.025Z,8.60
2022-12-29T00:16:31.463Z,8.60
2022-12-29T00:18:59.576Z,8.60
2022-12-29T00:21:47.007Z,8.60
2022-12-29T00:24:28.917Z,8.50
2022-12-29T00:27:23.588Z,8.50
2022-12-29T00:30:09.792Z,8.40
2022-12-29T00:32:56.306Z,8.30
2022-12-29T00:35:30.601Z,8.00
2022-12-29T00:38:21.495Z,8.00
2022-12-29T00:41:08.968Z,8.20
2022-12-29T00:43:54.781Z,8.40
2022-12-29T00:46:22.340Z,8.00
2022-12-29T00:49:08.810Z,7.90
2022-12-29T00:51:36.156Z,7.80
2022-12-29T00:54:03.782Z,7.80
2022-12-29T00:56:31.468Z,8.00
2022-12-29T00:59:09.398Z,8.00
2022-12-29T01:01:37.802Z,8.10
2022-12-29T01:04:06.561Z,8.30
2022-12-29T01:06:35.105Z,8.30
2022-12-29T01:09:22.576Z,8.40
2022-12-29T01:11:51.084Z,8.10
2022-12-29T01:14:19.454Z,8.00
2022-12-29T01:16:47.421Z,8.00
2022-12-29T01:19:16.248Z,7.90
2022-12-29T01:21:46.641Z,7.90
2022-12-29T01:24:16.224Z,8.00
2022-12-29T01:26:44.847Z,8.10
2022-12-29T01:29:12.925Z,8.20
2022-12-29T01:31:40.337Z,8.20
2022-12-29T01:34:09.865Z,8.20
2022-12-29T01:36:39.121Z,8.20
2022-12-29T01:39:06.733Z,8.20
2022-12-29T01:41:34.829Z,8.20
2022-12-29T01:44:02.949Z,8.10
2022-12-29T01:46:39.187Z,7.50
2022-12-29T01:49:09.448Z,7.20
2022-12-29T01:51:51.734Z,6.90
2022-12-29T01:54:25.395Z,6.70
2022-12-29T01:56:59.144Z,6.60
2022-12-29T01:59:31.575Z,6.40
2022-12-29T02:02:00.375Z,6.70
2022-12-29T02:04:33.488Z,7.20
2022-12-29T02:07:10.000Z,7.20
2022-12-29T02:09:37.451Z,7.20
2022-12-29T02:12:05.880Z,7.40
2022-12-29T02:14:33.933Z,7.50
2022-12-29T02:17:31.522Z,7.20
2022-12-29T02:20:24.512Z,7.20
2022-12-29T02:23:13.549Z,7.20
2022-12-29T02:26:06.292Z,7.40
2022-12-29T02:29:04.757Z,7.50
2022-12-29T02:31:54.189Z,7.20
2022-12-29T02:34:41.852Z,7.20
2022-12-29T02:37:23.567Z,7.40
2022-12-29T02:40:18.767Z,7.60
2022-12-29T02:42:57.438Z,7.80
2022-12-29T02:45:47.825Z,7.90
2022-12-29T02:48:23.793Z,7.70
2022-12-29T02:51:17.064Z,7.50
2022-12-29T02:54:04.279Z,7.50
2022-12-29T02:56:31.942Z,7.50
2022-12-29T02:58:59.612Z,7.50
2022-12-29T03:02:07.608Z,7.30
2022-12-29T03:05:14.503Z,7.20
2022-12-29T03:08:06.516Z,6.80
2022-12-29T03:11:01.907Z,5.90
2022-12-29T03:13:57.709Z,5.80
2022-12-29T03:16:47.456Z,6.20
2022-12-29T03:19:27.576Z,6.50
2022-12-29T03:22:28.790Z,6.60
2022-12-29T03:25:46.769Z,6.40
2022-12-29T03:28:47.413Z,5.90
2022-12-29T03:31:21.238Z,5.80
2022-12-29T03:33:51.384Z,5.90
2022-12-29T03:36:54.009Z,6.10
2022-12-29T03:39:24.995Z,6.40
2022-12-29T03:42:01.308Z,6.60
2022-12-29T03:44:38.052Z,6.20
2022-12-29T03:47:07.839Z,6.30
2022-12-29T03:49:35.410Z,6.40
2022-12-29T03:52:05.535Z,6.50
2022-12-29T03:54:37.794Z,6.70
2022-12-29T03:57:06.745Z,6.70
2022-12-29T03:59:46.597Z,6.60
2022-12-29T04:02:14.401Z,6.80
2022-12-29T04:04:42.610Z,6.80
2022-12-29T04:07:10.984Z,6.90
2022-12-29T04:09:38.531Z,6.90
2022-12-29T04:12:06.732Z,7.00
2022-12-29T04:14:36.285Z,6.90
2022-12-29T04:17:04.145Z,7.00
2022-12-29T04:19:32.160Z,6.70
2022-12-29T04:22:00.384Z,6.60
2022-12-29T04:24:28.848Z,6.60
2022-12-29T04:26:56.712Z,6.70
2022-12-29T04:30:02.776Z,6.80
2022-12-29T04:32:47.736Z,6.80
2022-12-29T04:35:15.340Z,6.90
2022-12-29T04:37:43.427Z,7.00
2022-12-29T04:40:11.476Z,7.00
2022-12-29T04:42:39.771Z,6.60
2022-12-29T04:45:09.192Z,6.50
2022-12-29T04:47:57.104Z,6.50
2022-12-29T04:50:48.184Z,6.60
2022-12-29T04:53:19.038Z,6.70
2022-12-29T04:55:52.391Z,6.60
2022-12-29T04:58:23.030Z,6.40
2022-12-29T05:00:55.998Z,6.50
2022-12-29T05:03:27.247Z,6.70
2022-12-29T05:05:56.963Z,6.80
2022-12-29T05:08:28.338Z,6.90
2022-12-29T05:10:59.267Z,6.60
2022-12-29T05:13:27.558Z,6.60
2022-12-29T05:15:57.461Z,6.70
2022-12-29T05:18:26.083Z,6.70
2022-12-29T05:20:53.848Z,6.80
2022-12-29T05:23:23.016Z,6.60
2022-12-29T05:25:56.749Z,6.40
2022-12-29T05:28:37.275Z,6.50
2022-12-29T05:31:11.816Z,6.70
2022-12-29T05:33:39.743Z,6.70
2022-12-29T05:36:09.862Z,6.70
2022-12-29T05:38:41.041Z,6.50
2022-12-29T05:41:08.553Z,6.20
2022-12-29T05:44:02.489Z,6.20
2022-12-29T05:46:30.229Z,6.30
2022-12-29T05:49:11.403Z,6.50
2022-12-29T05:51:53.264Z,6.50
2022-12-29T05:54:22.206Z,6.40
2022-12-29T05:56:51.196Z,6.40
2022-12-29T05:59:19.194Z,6.30
2022-12-29T06:01:46.843Z,6.00
2022-12-29T06:04:14.944Z,5.70
2022-12-29T06:06:42.625Z,5.80
2022-12-29T06:09:17.535Z,6.00
2022-12-29T06:11:45.053Z,6.30
2022-12-29T06:14:12.626Z,6.40
2022-12-29T06:16:40.105Z,6.40
2022-12-29T06:19:11.373Z,6.20
2022-12-29T06:21:39.620Z,5.80
2022-12-29T06:24:07.506Z,5.60
2022-12-29T06:26:37.963Z,5.40
2022-12-29T06:29:06.033Z,5.40
2022-12-29T06:31:33.917Z,5.60
2022-12-29T06:34:08.321Z,5.90
2022-12-29T06:36:37.502Z,6.10
2022-12-29T06:39:06.174Z,6.10
2022-12-29T06:41:34.571Z,6.20
2022-12-29T06:44:23.007Z,6.30
2022-12-29T06:46:52.564Z,6.50
2022-12-29T06:49:20.338Z,6.50
2022-12-29T06:51:48.384Z,6.60
2022-12-29T06:54:16.740Z,6.50
2022-12-29T06:56:44.932Z,6.30
2022-12-29T06:59:12.339Z,6.30
2022-12-29T07:01:40.369Z,6.50
2022-12-29T07:04:08.165Z,6.70
2022-12-29T07:06:35.679Z,6.70
2022-12-29T07:09:03.166Z,6.40
2022-12-29T07:11:30.925Z,6.50
2022-12-29T07:14:04.938Z,6.80
2022-12-29T07:16:33.333Z,6.80
2022-12-29T07:19:01.877Z,6.80
2022-12-29T07:21:30.113Z,6.90
2022-12-29T07:23:57.777Z,7.00
2022-12-29T07:26:28.277Z,7.20
2022-12-29T07:28:58.254Z,7.20
2022-12-29T07:31:25.882Z,7.20
2022-12-29T07:33:54.111Z,7.10
2022-12-29T07:36:21.992Z,7.20
2022-12-29T07:38:49.675Z,7.00
2022-12-29T07:41:17.387Z,7.10
2022-12-29T07:43:50.425Z,7.10
2022-12-29T07:46:55.335Z,7.20
2022-12-29T07:49:24.746Z,7.40
2022-12-29T07:51:52.701Z,7.40
2022-12-29T07:54:21.602Z,7.40
2022-12-29T07:56:49.410Z,7.50
2022-12-29T07:59:17.417Z,7.60
2022-12-29T08:01:44.924Z,7.70
2022-12-29T08:04:12.346Z,7.70
2022-12-29T08:06:39.966Z,7.80
2022-12-29T08:09:16.377Z,7.80
2022-12-29T08:11:47.655Z,7.60
2022-12-29T08:14:15.235Z,7.60
2022-12-29T08:16:42.580Z,7.40
2022-12-29T08:19:12.914Z,7.20
2022-12-29T08:21:40.856Z,7.50
2022-12-29T08:24:09.313Z,7.60
2022-12-29T08:26:37.049Z,7.80
2022-12-29T08:29:04.513Z,8.00
2022-12-29T08:31:31.971Z,8.00
2022-12-29T08:34:01.334Z,8.20
2022-12-29T08:36:29.238Z,8.40
2022-12-29T08:38:56.828Z,8.60
2022-12-29T08:41:24.788Z,8.90
2022-12-29T08:43:53.306Z,9.00
2022-12-29T08:46:21.703Z,9.10
2022-12-29T08:48:49.359Z,9.20
2022-12-29T08:51:22.807Z,9.40
2022-12-29T08:53:53.122Z,9.40
2022-12-29T08:56:23.528Z,9.20
2022-12-29T08:58:55.454Z,9.20
2022-12-29T09:01:24.584Z,9.40
2022-12-29T09:04:14.978Z,9.40
2022-12-29T09:06:44.342Z,9.40
2022-12-29T09:09:12.361Z,9.40
2022-12-29T09:11:40.285Z,9.40
2022-12-29T09:14:07.723Z,9.60
2022-12-29T09:16:36.183Z,9.60
2022-12-29T09:19:04.408Z,9.60
2022-12-29T09:21:32.354Z,9.60
2022-12-29T09:24:01.243Z,9.60
2022-12-29T09:26:28.666Z,9.60
2022-12-29T09:36:22.639Z,9.60
2022-12-29T09:38:50.174Z,9.60
2022-12-29T09:41:37.010Z,9.50
2022-12-29T09:44:31.941Z,9.50
2022-12-29T09:47:01.769Z,9.50
2022-12-29T10:03:09.856Z,9.20
2022-12-29T10:05:49.691Z,9.20
2022-12-29T10:08:46.559Z,9.40
2022-12-29T10:11:14.135Z,9.40
2022-12-29T10:14:13.750Z,9.20
2022-12-29T10:17:38.786Z,9.20
2022-12-29T10:20:14.516Z,9.10
2022-12-29T10:22:54.039Z,9.30
2022-12-29T10:25:28.376Z,9.40
2022-12-29T10:28:02.759Z,9.40
2022-12-29T10:30:30.646Z,9.40
2022-12-29T10:33:05.723Z,9.40
2022-12-29T10:35:40.111Z,9.40
2022-12-29T10:38:41.186Z,9.50
2022-12-29T10:41:27.055Z,9.60
2022-12-29T10:43:57.921Z,9.50
2022-12-29T10:46:36.771Z,9.30
2022-12-29T10:49:05.881Z,9.00
2022-12-29T10:51:38.479Z,9.20
2022-12-29T10:54:26.868Z,9.40
2022-12-29T10:57:21.589Z,9.60
2022-12-29T10:59:49.129Z,9.50
2022-12-29T11:02:16.484Z,9.50
2022-12-29T11:04:53.989Z,9.60
2022-12-29T11:07:26.923Z,9.70
2022-12-29T11:09:55.462Z,10.00
2022-12-29T11:12:27.652Z,9.90
2022-12-29T11:15:15.924Z,9.80
2022-12-29T11:17:50.884Z,10.00
2022-12-29T11:20:27.030Z,10.10
2022-12-29T11:22:54.496Z,10.20
2022-12-29T11:25:22.227Z,10.40
2022-12-29T11:28:05.285Z,10.50
2022-12-29T11:30:33.407Z,10.50
2022-12-29T11:33:05.065Z,10.60
2022-12-29T11:35:41.972Z,10.70
2022-12-29T11:38:36.467Z,10.70
2022-12-29T11:41:05.049Z,10.50
2022-12-29T11:43:35.721Z,10.70
2022-12-29T11:46:06.405Z,11.00
2022-12-29T11:48:41.122Z,11.20
2022-12-29T11:51:10.941Z,11.30
2022-12-29T11:53:45.857Z,11.50
2022-12-29T11:56:16.845Z,11.30
2022-12-29T11:58:45.304Z,11.10
2022-12-29T12:01:37.134Z,11.20
2022-12-29T12:04:14.365Z,11.30
2022-12-29T12:07:03.570Z,11.30
2022-12-29T12:09:38.259Z,11.50
2022-12-29T12:12:10.887Z,11.60
2022-12-29T12:14:47.906Z,12.10
2022-12-29T12:17:40.578Z,12.50
2022-12-29T12:20:16.968Z,12.80
2022-12-29T12:22:51.908Z,12.90
2022-12-29T12:25:30.779Z,13.10
2022-12-29T12:28:03.442Z,12.90
2022-12-29T12:30:43.019Z,12.40
2022-12-29T12:33:23.472Z,12.50
2022-12-29T12:36:27.450Z,12.80
2022-12-29T12:39:26.992Z,12.90
2022-12-29T12:42:08.869Z,13.10
2022-12-29T12:44:54.142Z,13.60
2022-12-29T12:47:47.685Z,13.90
2022-12-29T12:50:41.577Z,13.60
2022-12-29T12:53:40.886Z,13.50
2022-12-29T12:56:14.368Z,13.70
2022-12-29T12:59:05.558Z,13.80
2022-12-29T13:01:48.699Z,13.90
2022-12-29T13:04:28.254Z,14.50
2022-12-29T13:07:04.682Z,14.90
2022-12-29T13:10:22.734Z,14.80
2022-12-29T13:13:15.766Z,14.00
2022-12-29T13:16:13.754Z,12.90
2022-12-29T13:19:13.992Z,12.70
2022-12-29T13:22:00.070Z,12.60
2022-12-29T13:25:05.750Z,12.80
2022-12-29T13:28:11.978Z,13.30
2022-12-29T13:31:13.032Z,13.90
2022-12-29T13:33:58.104Z,14.10
2022-12-29T13:36:46.331Z,14.20
2022-12-29T13:39:37.447Z,14.60
2022-12-29T13:42:06.510Z,15.50
2022-12-29T13:44:48.296Z,16.10
2022-12-29T13:47:27.770Z,16.70
2022-12-29T13:49:58.138Z,17.50
2022-12-29T13:53:02.927Z,18.00
2022-12-29T13:55:50.121Z,18.20
2022-12-29T13:58:24.349Z,18.20
2022-12-29T14:01:18.168Z,18.10
2022-12-29T14:03:54.900Z,17.20
2022-12-29T14:06:26.997Z,16.00
2022-12-29T14:09:06.241Z,15.60
2022-12-29T14:11:39.245Z,15.30
2022-12-29T14:14:21.944Z,15.40
2022-12-29T14:16:49.802Z,15.40
2022-12-29T14:19:19.364Z,15.30
2022-12-29T14:22:04.591Z,15.30
2022-12-29T14:24:38.042Z,15.00
2022-12-29T14:27:45.913Z,15.20
2022-12-29T14:31:05.804Z,16.00
2022-12-29T14:33:35.453Z,16.60
2022-12-29T14:36:35.576Z,16.40
2022-12-29T14:39:04.469Z,16.30
2022-12-29T14:41:39.868Z,16.20
2022-12-29T14:44:12.881Z,16.40
2022-12-29T14:46:55.333Z,16.40
2022-12-29T14:49:29.544Z,16.00
2022-12-29T14:52:22.073Z,15.30
2022-12-29T14:54:54.702Z,15.20
2022-12-29T14:57:30.389Z,14.00
2022-12-29T15:00:07.302Z,13.60
2022-12-29T15:02:41.802Z,13.60
2022-12-29T15:05:36.347Z,13.50
2022-12-29T15:08:05.507Z,13.40
2022-12-29T15:10:59.025Z,13.00
2022-12-29T15:13:35.862Z,12.70
2022-12-29T15:16:08.175Z,12.60
2022-12-29T15:18:38.678Z,12.30
2022-12-29T15:21:15.477Z,11.80
2022-12-29T15:23:46.073Z,11.70
2022-12-29T15:26:14.102Z,11.50
2022-12-29T15:28:47.021Z,11.40
2022-12-29T15:31:29.981Z,11.50
2022-12-29T15:34:14.640Z,11.50
2022-12-29T15:36:42.758Z,11.70
2022-12-29T15:39:29.645Z,11.70
2022-12-29T15:42:05.365Z,11.40
2022-12-29T15:44:42.809Z,10.80
2022-12-29T15:47:20.831Z,10.30
2022-12-29T15:50:06.054Z,10.30
2022-12-29T15:52:34.978Z,9.90
2022-12-29T15:55:04.455Z,9.70
2022-12-29T15:57:38.882Z,9.90
2022-12-29T16:00:27.242Z,10.00
2022-12-29T16:02:57.660Z,10.10
2022-12-29T16:05:25.338Z,10.20
2022-12-29T16:07:56.278Z,10.00
2022-12-29T16:10:35.217Z,9.60
2022-12-29T16:13:26.823Z,9.40
2022-12-29T16:16:05.878Z,9.50
2022-12-29T16:19:36.228Z,9.60
2022-12-29T16:22:11.739Z,9.80
2022-12-29T16:24:41.700Z,10.00
2022-12-29T16:27:18.307Z,9.80
2022-12-29T16:29:46.228Z,9.50
2022-12-29T16:32:33.529Z,9.70
2022-12-29T16:35:29.301Z,9.80
2022-12-29T16:38:14.751Z,9.40
2022-12-29T16:40:55.622Z,9.20
2022-12-29T16:43:27.733Z,9.40
2022-12-29T16:45:56.748Z,9.20
2022-12-29T16:48:32.077Z,9.20
2022-12-29T16:51:29.423Z,9.40
2022-12-29T16:53:57.728Z,9.40
2022-12-29T16:56:29.458Z,9.40
2022-12-29T16:59:10.721Z,9.50
2022-12-29T17:01:39.876Z,9.50
2022-12-29T17:04:11.450Z,9.60
2022-12-29T17:06:39.250Z,9.50
2022-12-29T17:09:29.695Z,9.50
2022-12-29T17:12:08.810Z,9.00
2022-12-29T17:14:54.162Z,8.60
2022-12-29T17:17:35.804Z,8.80
2022-12-29T17:20:28.307Z,8.60
2022-12-29T17:22:56.471Z,9.00
2022-12-29T17:25:35.500Z,9.00
2022-12-29T17:28:25.707Z,9.00
2022-12-29T17:31:07.065Z,8.90
2022-12-29T17:33:38.758Z,8.70
2022-12-29T17:36:06.620Z,8.70
2022-12-29T17:38:37.815Z,8.90
2022-12-29T17:41:11.832Z,8.90
2022-12-29T17:43:39.553Z,9.00
2022-12-29T17:46:09.492Z,9.10
2022-12-29T17:48:39.004Z,9.20
2022-12-29T17:51:09.375Z,8.90
2022-12-29T17:53:37.870Z,8.40
2022-12-29T17:56:05.764Z,8.40
2022-12-29T17:58:33.744Z,8.60
2022-12-29T18:01:05.038Z,8.40
2022-12-29T18:03:37.667Z,8.50
2022-12-29T18:06:08.691Z,8.70
2022-12-29T18:08:40.573Z,8.90
2022-12-29T18:11:26.215Z,9.20
2022-12-29T18:13:55.755Z,9.20
2022-12-29T18:16:24.028Z,9.20
2022-12-29T18:18:51.528Z,9.00
2022-12-29T18:21:21.049Z,8.60
2022-12-29T18:23:49.425Z,8.60
2022-12-29T18:26:27.911Z,8.90
2022-12-29T18:28:57.156Z,8.90
2022-12-29T18:31:26.245Z,8.80
2022-12-29T18:33:54.728Z,8.60
2022-12-29T18:36:23.055Z,8.30
2022-12-29T18:38:53.365Z,8.20
2022-12-29T18:41:26.375Z,8.10
2022-12-29T18:43:53.895Z,8.10
2022-12-29T18:46:23.398Z,8.20
2022-12-29T18:48:52.962Z,8.20
2022-12-29T18:51:23.256Z,8.40
2022-12-29T18:53:54.975Z,8.50
2022-12-29T18:56:23.855Z,8.60
2022-12-29T18:58:53.722Z,8.50
2022-12-29T19:01:24.049Z,8.30
2022-12-29T19:03:52.102Z,7.50
2022-12-29T19:06:21.507Z,7.20
2022-12-29T19:08:50.178Z,7.40
2022-12-29T19:11:18.130Z,7.70
2022-12-29T19:13:45.540Z,7.80
2022-12-29T19:16:33.664Z,8.10
2022-12-29T19:19:10.059Z,8.30
2022-12-29T19:21:38.087Z,8.40
2022-12-29T19:24:06.676Z,8.20
2022-12-29T19:26:37.546Z,8.00
2022-12-29T19:29:07.898Z,8.00
2022-12-29T19:31:37.136Z,8.20
2022-12-29T19:34:04.696Z,8.20
2022-12-29T19:36:32.593Z,8.10
2022-12-29T19:38:59.926Z,8.20
2022-12-29T19:41:27.461Z,8.20
2022-12-29T19:43:55.203Z,8.30
2022-12-29T19:46:23.522Z,8.40
2022-12-29T19:48:52.646Z,8.50
2022-12-29T19:51:19.982Z,8.60
2022-12-29T19:53:47.855Z,8.50
2022-12-29T19:56:17.705Z,7.90
2022-12-29T19:58:47.584Z,7.80
2022-12-29T20:01:21.824Z,7.90
2022-12-29T20:03:49.784Z,7.80
2022-12-29T20:06:25.917Z,7.80
2022-12-29T20:08:53.391Z,7.70
2022-12-29T20:13:40.545Z,8.00
2022-12-29T20:16:13.151Z,7.90
2022-12-29T20:18:41.281Z,8.00
2022-12-29T20:21:21.563Z,7.80
2022-12-29T20:23:50.117Z,7.90
2022-12-29T20:26:23.425Z,8.00
2022-12-29T20:28:53.875Z,8.10
2022-12-29T20:31:31.246Z,8.20
2022-12-29T20:33:59.175Z,8.00
2022-12-29T20:36:30.502Z,7.80
2022-12-29T20:39:00.122Z,8.00
2022-12-29T20:41:28.359Z,8.00
2022-12-29T20:43:55.779Z,7.80
2022-12-29T20:46:29.872Z,7.30
2022-12-29T20:49:03.602Z,7.50
2022-12-29T20:51:59.177Z,7.80
2022-12-29T20:54:21.229Z,8.10
2022-12-29T20:56:48.948Z,8.20
2022-12-29T20:59:29.917Z,8.20
2022-12-29T21:01:58.772Z,7.90
2022-12-29T21:04:26.857Z,7.40
2022-12-29T21:06:55.227Z,7.50
2022-12-29T21:09:23.106Z,7.60
2022-12-29T21:11:50.723Z,7.00
2022-12-29T21:14:18.004Z,6.70
2022-12-29T21:16:45.569Z,6.70
2022-12-29T21:19:13.947Z,6.90
2022-12-29T21:21:41.324Z,7.20
2022-12-29T21:24:08.798Z,7.40
2022-12-29T21:26:37.365Z,7.50
2022-12-29T21:29:05.133Z,7.70
2022-12-29T21:31:37.558Z,7.80
2022-12-29T21:34:06.758Z,7.80
2022-12-29T21:36:34.789Z,7.20
2022-12-29T21:39:03.915Z,7.20
2022-12-29T21:41:32.682Z,7.40
2022-12-29T21:44:18.690Z,7.50
2022-12-29T21:46:48.214Z,7.60
2022-12-29T21:49:16.911Z,7.70
2022-12-29T21:51:50.260Z,7.50
2022-12-29T21:54:45.112Z,7.60
2022-12-29T21:57:34.004Z,7.60
2022-12-29T22:00:20.493Z,7.80
2022-12-29T22:03:10.194Z,7.70
2022-12-29T22:06:02.921Z,7.80
2022-12-29T22:08:50.720Z,7.80
2022-12-29T22:11:37.729Z,7.90
2022-12-29T22:14:06.974Z,7.80
2022-12-29T22:16:35.399Z,7.80
2022-12-29T22:19:04.799Z,7.20
2022-12-29T22:21:32.801Z,7.20
2022-12-29T22:24:01.001Z,7.30
2022-12-29T22:26:28.850Z,7.30
2022-12-29T22:28:57.064Z,7.40
2022-12-29T22:31:33.890Z,7.50
2022-12-29T22:34:05.165Z,7.50
2022-12-29T22:36:34.646Z,7.60
2022-12-29T22:39:02.668Z,7.60
2022-12-29T22:41:32.356Z,7.60
2022-12-29T22:43:59.753Z,7.60
2022-12-29T22:46:27.356Z,7.70
2022-12-29T22:48:57.782Z,7.40
2022-12-29T22:51:25.316Z,7.40
2022-12-29T22:53:53.228Z,7.20
2022-12-29T22:56:21.536Z,7.20
2022-12-29T22:58:49.742Z,6.80
2022-12-29T23:01:22.896Z,6.80
2022-12-29T23:03:50.978Z,6.90
2022-12-29T23:06:18.331Z,6.90
2022-12-29T23:08:47.577Z,7.00
2022-12-29T23:11:15.713Z,7.00
2022-12-29T23:13:45.293Z,7.10
2022-12-29T23:16:15.825Z,7.10
2022-12-29T23:18:44.275Z,7.00
2022-12-29T23:21:11.807Z,7.00
2022-12-29T23:23:55.178Z,6.80
2022-12-29T23:26:27.738Z,6.70
2022-12-29T23:28:59.920Z,6.80
2022-12-29T23:31:29.095Z,6.90
2022-12-29T23:33:57.082Z,7.00
2022-12-29T23:36:26.731Z,7.00
2022-12-29T23:38:55.010Z,6.80
2022-12-29T23:41:24.107Z,6.80
2022-12-29T23:43:51.687Z,6.80
2022-12-29T23:46:21.974Z,6.90
2022-12-29T23:48:49.668Z,6.90
2022-12-29T23:51:17.989Z,6.80
2022-12-29T23:53:46.985Z,6.90
2022-12-29T23:56:20.588Z,7.00
2022-12-29T23:58:48.941Z,6.60
